Time;durP1;ratioP1;P1;durP2;ratioP2;P2;SDS_P1;SDS_P2;PMS_P1;PMS_P2;Temp;Humidity;BMP_temperature;BMP_pressure;BME280_temperature;BME280_humidity;BME280_pressure;Samples;Min_cycle;Max_cycle;Signal;HPM_P1;HPM_P2
2021/03/05 00:01:57;;;;;;;9.07;8.27;;;9.50;83.70;;;;;;5089741;28;20717;-54
2021/03/05 00:04:24;;;;;;;9.73;8.73;;;9.50;84.10;;;;;;5091028;28;21231;-53
2021/03/05 00:06:51;;;;;;;8.40;7.50;;;9.50;84.30;;;;;;5089788;28;20628;-52
2021/03/05 00:09:17;;;;;;;7.57;6.87;;;9.50;84.70;;;;;;5090387;28;20972;-52
2021/03/05 00:11:44;;;;;;;8.67;7.87;;;9.60;84.90;;;;;;5089767;28;20716;-53
2021/03/05 00:14:11;;;;;;;9.10;8.10;;;9.50;85.00;;;;;;5091721;28;20667;-51
2021/03/05 00:16:37;;;;;;;9.30;8.40;;;9.60;85.40;;;;;;5090195;28;20636;-53
2021/03/05 00:19:05;;;;;;;11.60;9.63;;;9.60;85.10;;;;;;5090278;28;20620;-54
2021/03/05 00:21:32;;;;;;;10.03;9.00;;;9.60;85.00;;;;;;5090934;28;20740;-53
2021/03/05 00:23:59;;;;;;;12.70;9.93;;;9.60;84.60;;;;;;5087986;28;20689;-53
2021/03/05 00:26:25;;;;;;;9.13;8.23;;;9.60;84.10;;;;;;5086694;28;21215;-54
2021/03/05 00:28:52;;;;;;;11.57;9.63;;;9.60;83.60;;;;;;5088990;28;20658;-53
2021/03/05 00:31:19;;;;;;;10.83;9.73;;;9.60;83.40;;;;;;5089425;28;20688;-53
2021/03/05 00:33:46;;;;;;;11.67;9.97;;;9.60;83.90;;;;;;5074964;28;20657;-53
2021/03/05 00:36:13;;;;;;;10.07;9.03;;;9.60;83.50;;;;;;5080730;28;20681;-52
2021/03/05 00:38:40;;;;;;;11.37;9.27;;;9.60;83.10;;;;;;5089140;28;20682;-54
2021/03/05 00:41:07;;;;;;;14.00;10.73;;;9.70;82.80;;;;;;5089169;28;20988;-52
2021/03/05 00:43:33;;;;;;;10.33;9.33;;;9.60;82.30;;;;;;5085988;28;20755;-52
2021/03/05 00:46:00;;;;;;;14.57;10.70;;;9.60;82.50;;;;;;5089741;28;21210;-53
2021/03/05 00:48:27;;;;;;;13.30;11.33;;;9.60;82.70;;;;;;5089536;28;20706;-52
2021/03/05 00:50:54;;;;;;;13.73;9.90;;;9.60;82.60;;;;;;5090430;28;20673;-53
2021/03/05 00:53:21;;;;;;;17.50;10.87;;;9.70;82.20;;;;;;5087661;28;20663;-53
2021/03/05 00:55:48;;;;;;;14.60;9.60;;;9.60;82.00;;;;;;5090219;28;20659;-52
2021/03/05 00:58:14;;;;;;;11.53;9.57;;;9.60;82.40;;;;;;5089175;28;20628;-53
2021/03/05 01:00:41;;;;;;;13.37;11.13;;;9.60;82.40;;;;;;5089989;28;20655;-53
2021/03/05 01:03:08;;;;;;;11.97;10.77;;;9.60;82.90;;;;;;5089841;28;21275;-54
2021/03/05 01:05:35;;;;;;;13.93;10.07;;;9.60;83.20;;;;;;5089602;28;20643;-53
2021/03/05 01:08:02;;;;;;;12.47;10.57;;;9.60;82.80;;;;;;5088515;28;20628;-54
2021/03/05 01:10:29;;;;;;;15.50;10.90;;;9.50;82.00;;;;;;5090315;28;20685;-53
2021/03/05 01:12:56;;;;;;;11.73;9.47;;;9.50;82.40;;;;;;5086148;28;20729;-54
2021/03/05 01:15:23;;;;;;;15.47;11.40;;;9.50;82.50;;;;;;5084041;28;20632;-52
2021/03/05 01:17:50;;;;;;;14.60;12.63;;;9.50;82.40;;;;;;5089072;28;20841;-52
2021/03/05 01:20:17;;;;;;;14.07;10.20;;;9.50;82.60;;;;;;5089623;28;21164;-51
2021/03/05 01:22:44;;;;;;;16.03;13.10;;;9.50;82.60;;;;;;5089508;28;20646;-53
2021/03/05 01:25:13;;;;;;;13.37;10.70;;;9.50;82.80;;;;;;5090357;28;20628;-52
2021/03/05 01:27:40;;;;;;;14.97;11.83;;;9.50;83.10;;;;;;5092588;28;20677;-52
2021/03/05 01:30:08;;;;;;;16.07;12.53;;;9.50;83.10;;;;;;5094334;28;20646;-52
2021/03/05 01:32:35;;;;;;;13.57;11.37;;;9.50;82.30;;;;;;5094426;28;21156;-53
2021/03/05 01:35:01;;;;;;;15.90;11.10;;;9.50;81.50;;;;;;5093277;28;21195;-52
2021/03/05 01:37:28;;;;;;;16.67;11.27;;;9.40;81.60;;;;;;5093406;28;20713;-51
2021/03/05 01:39:55;;;;;;;15.40;11.50;;;9.30;81.50;;;;;;5090070;28;20656;-52
2021/03/05 01:42:22;;;;;;;13.07;11.00;;;9.30;82.50;;;;;;5084763;28;20705;-53
2021/03/05 01:44:49;;;;;;;15.13;11.77;;;9.30;83.60;;;;;;5092135;28;20650;-53
2021/03/05 01:47:16;;;;;;;12.80;11.40;;;9.30;84.70;;;;;;5093463;28;21149;-53
2021/03/05 01:49:42;;;;;;;13.50;11.13;;;9.30;83.90;;;;;;5093774;28;20635;-53
2021/03/05 01:52:09;;;;;;;21.37;13.10;;;9.30;83.40;;;;;;5093195;28;20653;-51
2021/03/05 01:54:36;;;;;;;14.47;12.57;;;9.30;83.90;;;;;;5093700;28;20659;-52
2021/03/05 01:57:03;;;;;;;11.80;10.60;;;9.30;83.90;;;;;;5093570;28;20635;-52
2021/03/05 01:59:33;;;;;;;13.90;11.33;;;9.40;83.40;;;;;;5093047;28;20634;-52
2021/03/05 02:02:01;;;;;;;13.73;12.00;;;9.30;83.40;;;;;;5085578;28;20664;-52
2021/03/05 02:04:28;;;;;;;12.63;11.33;;;9.40;83.50;;;;;;5093325;28;20658;-52
2021/03/05 02:06:54;;;;;;;13.77;10.97;;;9.40;83.40;;;;;;5092435;28;20632;-52
2021/03/05 02:09:21;;;;;;;16.80;11.87;;;9.30;83.40;;;;;;5087024;28;20717;-52
2021/03/05 02:11:48;;;;;;;12.07;10.07;;;9.30;83.80;;;;;;5093041;28;20688;-52
2021/03/05 02:14:14;;;;;;;13.23;10.70;;;9.40;83.70;;;;;;5092340;28;20755;-53
2021/03/05 02:16:46;;;;;;;12.73;11.50;;;9.40;84.30;;;;;;5088051;28;20635;-52
2021/03/05 02:19:47;;;;;;;14.13;11.70;;;9.50;85.20;;;;;;5093192;28;20712;-53
2021/03/05 02:22:22;;;;;;;11.67;10.47;;;9.50;85.40;;;;;;5046832;28;20698;-53
2021/03/05 02:25:07;;;;;;;14.03;11.70;;;9.50;85.30;;;;;;5078972;28;20654;-53
2021/03/05 02:27:52;;;;;;;13.40;11.50;;;9.50;85.40;;;;;;5088137;28;20692;-53
2021/03/05 02:30:37;;;;;;;12.87;11.00;;;9.50;85.60;;;;;;5091698;28;20662;-51
2021/03/05 02:33:07;;;;;;;15.37;11.87;;;9.60;85.50;;;;;;5049646;28;20704;-52
2021/03/05 02:35:34;;;;;;;11.87;10.77;;;9.50;85.00;;;;;;5074834;28;20623;-52
2021/03/05 02:38:02;;;;;;;12.20;10.87;;;9.50;85.30;;;;;;5090476;28;20680;-52
2021/03/05 02:40:34;;;;;;;13.07;11.20;;;9.60;86.50;;;;;;5091459;28;20914;-52
2021/03/05 02:43:02;;;;;;;11.50;10.17;;;9.60;86.70;;;;;;5092533;28;20820;-50
2021/03/05 02:45:30;;;;;;;10.20;9.20;;;9.50;86.40;;;;;;5085645;28;20629;-51
2021/03/05 02:48:01;;;;;;;11.93;9.80;;;9.50;85.50;;;;;;5084066;28;20619;-50
2021/03/05 02:50:30;;;;;;;10.87;9.53;;;9.50;84.60;;;;;;5092050;28;20632;-50
2021/03/05 02:52:59;;;;;;;13.73;10.23;;;9.50;84.30;;;;;;5092269;28;20654;-51
2021/03/05 02:55:25;;;;;;;12.80;8.87;;;9.40;84.00;;;;;;5091685;28;20692;-51
2021/03/05 02:57:55;;;;;;;13.23;9.70;;;9.40;83.90;;;;;;5091647;28;20620;-50
2021/03/05 03:00:22;;;;;;;10.77;9.67;;;9.40;84.20;;;;;;5091262;28;20628;-52
2021/03/05 03:02:49;;;;;;;10.73;9.73;;;9.40;83.90;;;;;;5085434;28;20671;-52
2021/03/05 03:05:16;;;;;;;10.70;9.60;;;9.40;83.50;;;;;;5091631;28;20615;-52
2021/03/05 03:07:43;;;;;;;11.57;9.87;;;9.40;83.20;;;;;;5091296;28;20633;-52
2021/03/05 03:10:11;;;;;;;10.70;9.60;;;9.40;83.00;;;;;;5091745;28;21027;-52
2021/03/05 03:12:38;;;;;;;10.10;9.20;;;9.40;82.90;;;;;;5090775;28;20670;-52
2021/03/05 03:15:05;;;;;;;9.43;8.53;;;9.30;83.10;;;;;;5091192;28;21141;-51
2021/03/05 03:17:32;;;;;;;10.20;9.10;;;9.30;83.20;;;;;;5091169;28;20669;-52
2021/03/05 03:19:59;;;;;;;12.00;9.70;;;9.30;83.30;;;;;;5091384;28;20673;-51
2021/03/05 03:22:25;;;;;;;14.93;9.40;;;9.30;82.80;;;;;;5090833;28;21409;-52
2021/03/05 03:24:53;;;;;;;12.23;10.97;;;9.30;83.20;;;;;;5091066;28;20664;-52
2021/03/05 03:27:20;;;;;;;10.87;9.87;;;9.20;83.10;;;;;;5085762;28;20731;-54
2021/03/05 03:29:46;;;;;;;17.57;11.30;;;9.20;83.10;;;;;;5089399;28;20635;-53
2021/03/05 03:32:13;;;;;;;10.60;9.50;;;9.20;83.20;;;;;;5090990;28;21013;-53
2021/03/05 03:34:40;;;;;;;13.00;10.00;;;9.20;83.10;;;;;;5090375;28;20735;-53
2021/03/05 03:37:07;;;;;;;13.00;10.37;;;9.30;82.80;;;;;;5090000;28;20635;-53
2021/03/05 03:39:34;;;;;;;12.90;11.23;;;9.20;82.70;;;;;;5090228;28;20771;-51
2021/03/05 03:42:02;;;;;;;12.90;11.23;;;9.20;82.50;;;;;;5090825;28;20800;-51
2021/03/05 03:44:28;;;;;;;13.70;11.70;;;9.20;82.50;;;;;;5090387;28;20735;-52
2021/03/05 03:46:55;;;;;;;12.30;10.53;;;9.20;82.60;;;;;;5082157;28;20661;-51
2021/03/05 03:49:24;;;;;;;13.87;11.83;;;9.10;82.30;;;;;;5074498;28;20639;-52
2021/03/05 03:51:56;;;;;;;14.10;11.87;;;9.20;82.80;;;;;;5083082;28;20628;-52
2021/03/05 03:54:23;;;;;;;16.70;10.80;;;9.20;83.00;;;;;;5090464;28;21064;-53
2021/03/05 03:56:50;;;;;;;12.23;10.83;;;9.10;83.20;;;;;;5091256;28;20631;-53
2021/03/05 03:59:18;;;;;;;13.43;11.43;;;9.10;83.00;;;;;;5090820;28;20793;-52
2021/03/05 04:01:45;;;;;;;12.17;10.93;;;9.20;83.30;;;;;;5090160;28;20673;-52
2021/03/05 04:04:12;;;;;;;16.13;13.43;;;9.20;83.50;;;;;;5090321;28;20656;-52
2021/03/05 04:06:39;;;;;;;16.10;11.70;;;9.20;83.80;;;;;;5081205;28;20660;-52
2021/03/05 04:09:07;;;;;;;15.33;13.70;;;9.20;83.80;;;;;;5086551;28;20631;-53
2021/03/05 04:11:34;;;;;;;16.60;13.57;;;9.20;83.70;;;;;;5089925;28;20634;-53
2021/03/05 04:14:00;;;;;;;15.10;12.80;;;9.20;83.60;;;;;;5078085;28;20678;-53
2021/03/05 04:16:28;;;;;;;15.03;13.00;;;9.20;84.00;;;;;;5089348;28;21174;-53
2021/03/05 04:18:55;;;;;;;15.37;13.20;;;9.20;83.70;;;;;;5089939;28;21103;-52
2021/03/05 04:21:22;;;;;;;14.17;12.63;;;9.10;83.20;;;;;;5082132;28;20653;-53
2021/03/05 04:23:49;;;;;;;14.07;12.30;;;9.10;83.40;;;;;;5074064;28;20855;-51
2021/03/05 04:26:16;;;;;;;14.20;12.70;;;9.00;83.80;;;;;;5090583;28;20630;-51
2021/03/05 04:28:43;;;;;;;14.43;11.83;;;9.00;84.00;;;;;;5089798;28;20715;-52
2021/03/05 04:31:09;;;;;;;13.20;11.63;;;9.00;83.90;;;;;;5089560;28;20680;-51
2021/03/05 04:33:37;;;;;;;14.63;11.23;;;9.00;83.70;;;;;;5090227;28;20718;-51
2021/03/05 04:36:04;;;;;;;14.30;12.63;;;8.90;83.50;;;;;;5090459;28;20699;-52
2021/03/05 04:38:31;;;;;;;12.50;10.33;;;8.90;83.10;;;;;;5089877;28;20666;-52
2021/03/05 04:40:57;;;;;;;15.70;12.93;;;8.90;82.90;;;;;;5088291;28;20631;-52
2021/03/05 04:43:24;;;;;;;11.17;9.97;;;8.80;82.40;;;;;;5088643;28;20910;-51
2021/03/05 04:45:51;;;;;;;14.63;11.43;;;8.90;82.60;;;;;;5089275;28;20700;-52
2021/03/05 04:48:17;;;;;;;13.70;10.63;;;8.80;82.60;;;;;;5089283;28;21032;-50
2021/03/05 04:50:45;;;;;;;12.77;10.30;;;8.80;82.80;;;;;;5089688;28;20677;-54
2021/03/05 04:53:12;;;;;;;10.40;9.07;;;8.80;82.40;;;;;;5089313;28;20655;-52
2021/03/05 04:55:40;;;;;;;14.97;11.13;;;8.80;82.50;;;;;;5089624;28;21175;-51
2021/03/05 04:58:06;;;;;;;13.30;9.40;;;8.80;82.70;;;;;;5088389;28;20687;-52
2021/03/05 05:00:33;;;;;;;13.13;10.07;;;8.80;82.70;;;;;;5088545;28;20631;-52
2021/03/05 05:03:00;;;;;;;11.00;8.80;;;8.80;82.60;;;;;;5080074;28;20825;-52
2021/03/05 05:05:26;;;;;;;12.20;10.03;;;8.90;82.60;;;;;;5089963;28;21193;-51
2021/03/05 05:07:55;;;;;;;12.13;10.33;;;8.80;82.50;;;;;;5089201;28;20658;-51
2021/03/05 05:10:22;;;;;;;11.50;10.30;;;8.90;82.50;;;;;;5089106;28;20643;-50
2021/03/05 05:12:49;;;;;;;10.93;9.13;;;8.90;82.50;;;;;;5088676;28;20658;-51
2021/03/05 05:15:16;;;;;;;13.00;10.33;;;8.90;82.90;;;;;;5089565;28;20692;-51
2021/03/05 05:17:42;;;;;;;13.90;9.50;;;8.90;82.70;;;;;;5088265;28;20620;-50
2021/03/05 05:20:10;;;;;;;11.93;9.07;;;9.00;82.40;;;;;;5071588;28;20694;-51
2021/03/05 05:22:37;;;;;;;15.63;11.00;;;9.00;82.20;;;;;;5086565;28;21132;-51
2021/03/05 05:25:06;;;;;;;11.33;9.83;;;8.90;81.70;;;;;;5077642;28;20664;-51
2021/03/05 05:27:34;;;;;;;12.37;9.47;;;9.00;81.60;;;;;;5088530;28;20688;-51
2021/03/05 05:30:01;;;;;;;11.23;9.20;;;9.00;81.20;;;;;;5089197;28;20620;-51
2021/03/05 05:32:28;;;;;;;11.87;9.60;;;9.00;80.60;;;;;;5088997;28;20681;-51
2021/03/05 05:34:55;;;;;;;12.40;10.63;;;8.90;80.10;;;;;;5088622;28;20654;-52
2021/03/05 05:37:21;;;;;;;11.37;10.20;;;9.00;80.50;;;;;;5088894;28;20796;-52
2021/03/05 05:39:48;;;;;;;14.13;9.50;;;8.90;80.10;;;;;;5089210;28;21036;-51
2021/03/05 05:42:16;;;;;;;16.80;10.90;;;8.90;80.40;;;;;;5087664;28;20712;-52
2021/03/05 05:44:43;;;;;;;13.70;10.23;;;8.90;80.80;;;;;;5077539;28;20710;-52
2021/03/05 05:47:12;;;;;;;12.03;9.67;;;8.90;81.30;;;;;;5072671;28;20623;-52
2021/03/05 05:49:38;;;;;;;14.33;10.23;;;8.90;81.10;;;;;;5089128;28;20624;-52
2021/03/05 05:52:05;;;;;;;11.70;10.10;;;8.90;80.40;;;;;;5088804;28;20987;-52
2021/03/05 05:54:32;;;;;;;13.07;9.07;;;8.90;80.50;;;;;;5088040;28;20720;-49
2021/03/05 05:56:59;;;;;;;15.30;11.20;;;8.90;80.20;;;;;;5088779;28;20792;-51
2021/03/05 05:59:27;;;;;;;13.77;10.43;;;8.90;79.50;;;;;;5088609;28;21263;-51
2021/03/05 06:01:54;;;;;;;17.63;11.80;;;8.80;79.30;;;;;;5088921;28;20720;-51
2021/03/05 06:04:20;;;;;;;10.10;8.97;;;8.80;79.60;;;;;;5079835;28;20647;-51
2021/03/05 06:06:47;;;;;;;14.00;9.50;;;8.80;79.80;;;;;;5069990;28;20670;-51
2021/03/05 06:09:14;;;;;;;12.67;9.60;;;8.80;80.00;;;;;;5086139;28;20808;-51
2021/03/05 06:11:41;;;;;;;11.67;9.60;;;8.70;79.90;;;;;;5088090;28;20628;-52
2021/03/05 06:14:08;;;;;;;12.00;9.90;;;8.80;79.90;;;;;;5091535;28;20663;-52
2021/03/05 06:16:36;;;;;;;16.77;11.40;;;8.80;79.30;;;;;;5092100;28;20626;-52
2021/03/05 06:19:16;;;;;;;13.00;10.43;;;8.80;79.10;;;;;;5092057;28;20639;-53
2021/03/05 06:21:43;;;;;;;17.50;10.83;;;8.80;79.30;;;;;;5092951;28;20662;-54
2021/03/05 06:24:10;;;;;;;12.70;10.60;;;8.80;79.10;;;;;;5091737;28;20671;-53
2021/03/05 06:26:50;;;;;;;14.13;9.40;;;8.80;79.60;;;;;;5092243;28;20673;-52
2021/03/05 06:29:17;;;;;;;14.50;11.10;;;8.80;78.60;;;;;;5092014;28;21208;-53
2021/03/05 06:31:53;;;;;;;16.40;10.20;;;8.80;78.20;;;;;;5092233;28;20649;-53
2021/03/05 06:34:19;;;;;;;11.40;9.10;;;8.80;77.60;;;;;;5092085;28;20655;-52
2021/03/05 06:36:57;;;;;;;16.20;10.37;;;8.80;77.10;;;;;;5092811;28;20660;-51
2021/03/05 06:39:25;;;;;;;11.50;8.97;;;8.80;77.70;;;;;;5092006;28;20627;-51
2021/03/05 06:41:58;;;;;;;18.40;11.20;;;8.80;77.70;;;;;;5091430;28;21207;-51
2021/03/05 06:44:25;;;;;;;10.80;8.67;;;8.80;77.60;;;;;;5082657;28;20664;-51
2021/03/05 06:46:52;;;;;;;16.03;9.67;;;8.90;77.10;;;;;;5071743;28;20678;-50
2021/03/05 06:49:19;;;;;;;15.70;8.90;;;8.90;76.10;;;;;;5071881;28;21223;-51
2021/03/05 06:51:51;;;;;;;10.07;8.60;;;8.90;75.90;;;;;;5071915;28;20663;-50
2021/03/05 06:54:18;;;;;;;15.17;10.00;;;8.90;75.70;;;;;;5088955;28;20772;-50
2021/03/05 06:56:48;;;;;;;13.70;9.50;;;8.90;75.40;;;;;;5091550;28;20630;-54
2021/03/05 06:59:15;;;;;;;12.73;9.50;;;8.90;75.20;;;;;;5090525;28;20634;-53
2021/03/05 07:01:52;;;;;;;13.87;9.70;;;8.90;74.80;;;;;;5091341;28;20627;-54
2021/03/05 07:04:23;;;;;;;10.73;8.90;;;8.90;74.60;;;;;;5083453;28;21065;-53
2021/03/05 07:07:00;;;;;;;12.77;8.87;;;8.80;74.50;;;;;;5072877;28;20625;-54
2021/03/05 07:09:28;;;;;;;13.17;10.20;;;8.80;74.90;;;;;;5091677;28;20631;-52
2021/03/05 07:11:55;;;;;;;17.17;8.80;;;8.80;75.30;;;;;;5091116;28;20632;-54
2021/03/05 07:14:26;;;;;;;15.53;9.00;;;8.80;75.20;;;;;;5092365;28;20708;-54
2021/03/05 07:16:55;;;;;;;15.63;9.73;;;8.70;75.40;;;;;;5090894;28;20631;-54
2021/03/05 07:19:25;;;;;;;19.73;10.90;;;8.70;75.60;;;;;;5091556;28;20771;-54
2021/03/05 07:21:52;;;;;;;14.97;10.40;;;8.70;76.10;;;;;;5079849;28;20696;-53
2021/03/05 07:24:19;;;;;;;13.47;9.70;;;8.70;76.50;;;;;;5070056;28;21255;-53
2021/03/05 07:29:29;;;;;;;14.97;10.60;;;8.80;76.90;;;;;;5088666;28;21169;-52
2021/03/05 07:32:03;;;;;;;15.93;10.50;;;8.90;76.90;;;;;;5091497;28;20682;-52
2021/03/05 07:34:31;;;;;;;13.93;10.57;;;8.80;76.50;;;;;;5091124;28;20667;-54
2021/03/05 07:37:00;;;;;;;17.80;11.20;;;8.90;76.10;;;;;;5091148;28;21266;-52
2021/03/05 07:39:30;;;;;;;14.57;10.40;;;8.90;76.30;;;;;;5090829;28;20620;-54
2021/03/05 07:41:57;;;;;;;12.73;8.37;;;8.90;76.80;;;;;;5089969;28;20699;-54
2021/03/05 07:44:25;;;;;;;10.30;9.10;;;9.00;76.80;;;;;;5083328;28;20660;-54
2021/03/05 07:46:52;;;;;;;10.30;9.03;;;9.00;77.20;;;;;;5089793;28;20648;-53
2021/03/05 07:49:24;;;;;;;16.83;11.67;;;9.00;76.60;;;;;;5088025;28;21203;-53
2021/03/05 07:51:54;;;;;;;11.83;8.60;;;9.10;76.10;;;;;;5090763;28;20681;-53
2021/03/05 07:54:51;;;;;;;15.30;11.00;;;9.10;75.70;;;;;;5090954;28;20651;-52
2021/03/05 07:57:45;;;;;;;11.40;8.37;;;9.10;75.80;;;;;;5028118;28;21060;-52
2021/03/05 08:00:44;;;;;;;16.27;10.23;;;9.10;76.00;;;;;;5082287;28;20632;-51
2021/03/05 08:03:14;;;;;;;10.13;8.30;;;9.10;76.00;;;;;;5088146;28;20684;-51
2021/03/05 08:05:42;;;;;;;13.83;10.43;;;9.10;75.50;;;;;;5090626;28;20619;-52
2021/03/05 08:08:14;;;;;;;9.10;8.20;;;9.10;75.20;;;;;;5090362;28;20650;-52
2021/03/05 08:10:42;;;;;;;19.77;12.03;;;9.10;74.90;;;;;;5090594;28;20627;-52
2021/03/05 08:13:47;;;;;;;15.07;9.50;;;9.20;74.10;;;;;;5090527;28;20660;-51
2021/03/05 08:16:39;;;;;;;12.17;9.90;;;9.10;74.10;;;;;;5090281;28;20627;-52
2021/03/05 08:19:46;;;;;;;13.40;10.20;;;9.00;74.20;;;;;;5090569;28;20689;-52
2021/03/05 08:22:14;;;;;;;13.53;9.50;;;9.00;74.60;;;;;;5083632;28;20699;-53
2021/03/05 08:24:42;;;;;;;13.37;8.20;;;9.00;74.20;;;;;;5086837;28;20715;-54
2021/03/05 08:27:10;;;;;;;12.87;9.30;;;9.10;74.30;;;;;;5090653;28;20619;-54
2021/03/05 08:29:53;;;;;;;13.03;8.97;;;9.10;73.20;;;;;;5089274;28;20628;-52
2021/03/05 08:32:59;;;;;;;9.23;8.30;;;9.10;72.80;;;;;;5090608;28;20612;-53
2021/03/05 08:35:46;;;;;;;12.87;9.07;;;9.10;72.30;;;;;;5090215;28;21113;-51
2021/03/05 08:38:30;;;;;;;10.93;8.33;;;9.10;72.00;;;;;;5090107;28;20623;-52
2021/03/05 08:41:07;;;;;;;17.53;9.07;;;9.10;72.40;;;;;;5088807;28;20620;-53
2021/03/05 08:43:35;;;;;;;9.97;8.77;;;9.20;72.70;;;;;;5090509;28;21292;-53
2021/03/05 08:46:03;;;;;;;13.00;11.70;;;9.20;73.00;;;;;;5090064;28;20624;-53
2021/03/05 08:48:32;;;;;;;9.47;8.00;;;9.20;72.50;;;;;;5089727;28;20673;-53
2021/03/05 08:51:10;;;;;;;13.27;10.40;;;9.30;71.90;;;;;;5089785;28;20697;-53
2021/03/05 08:53:38;;;;;;;10.43;9.23;;;9.30;71.20;;;;;;5089749;28;21211;-53
2021/03/05 08:56:05;;;;;;;14.40;8.03;;;9.30;71.20;;;;;;5089794;28;20709;-53
2021/03/05 08:58:32;;;;;;;11.33;9.60;;;9.30;70.60;;;;;;5089145;28;20697;-53
2021/03/05 09:00:59;;;;;;;14.07;8.67;;;9.30;70.50;;;;;;5089187;28;20616;-53
2021/03/05 09:03:26;;;;;;;7.80;7.00;;;9.40;71.10;;;;;;5089123;28;20660;-53
2021/03/05 09:05:53;;;;;;;11.03;9.40;;;9.50;71.10;;;;;;5089246;28;20734;-53
2021/03/05 09:08:22;;;;;;;11.00;9.70;;;9.60;70.50;;;;;;5088868;28;20682;-54
2021/03/05 09:10:51;;;;;;;10.13;9.10;;;9.60;69.70;;;;;;5088471;28;20697;-53
2021/03/05 09:13:23;;;;;;;12.77;8.27;;;9.60;69.20;;;;;;5089548;28;20760;-56
2021/03/05 09:15:55;;;;;;;10.33;8.40;;;9.60;68.90;;;;;;5090964;28;20723;-59
2021/03/05 09:18:23;;;;;;;10.40;8.60;;;9.60;69.00;;;;;;5089577;28;20628;-53
2021/03/05 09:20:50;;;;;;;11.07;8.80;;;9.60;69.00;;;;;;5088369;28;21035;-53
2021/03/05 09:23:29;;;;;;;10.50;9.40;;;9.60;68.40;;;;;;5080468;28;20690;-53
2021/03/05 09:25:56;;;;;;;9.17;8.23;;;9.60;67.70;;;;;;5089562;28;20627;-53
2021/03/05 09:28:24;;;;;;;11.73;9.03;;;9.60;68.60;;;;;;5089341;28;20669;-53
2021/03/05 09:30:52;;;;;;;9.87;8.50;;;9.70;68.50;;;;;;5089426;28;21183;-52
2021/03/05 09:33:26;;;;;;;9.57;8.57;;;9.70;67.60;;;;;;5088723;28;20660;-51
2021/03/05 09:36:01;;;;;;;10.30;9.20;;;9.70;67.30;;;;;;5089004;28;20628;-52
2021/03/05 09:38:28;;;;;;;8.50;7.60;;;9.70;67.40;;;;;;5088594;28;21216;-52
2021/03/05 09:40:54;;;;;;;9.80;8.80;;;9.70;67.30;;;;;;5088553;28;20632;-52
2021/03/05 09:43:21;;;;;;;11.03;9.63;;;9.70;67.10;;;;;;5088795;28;20707;-52
2021/03/05 09:45:50;;;;;;;10.27;8.67;;;9.80;67.00;;;;;;5089352;28;20689;-52
2021/03/05 09:48:29;;;;;;;11.93;9.07;;;9.80;66.60;;;;;;5090654;28;20660;-52
2021/03/05 09:50:58;;;;;;;12.47;8.80;;;9.90;66.60;;;;;;5093195;28;20681;-53
2021/03/05 09:53:27;;;;;;;10.13;8.63;;;10.00;65.30;;;;;;5092702;28;20648;-53
2021/03/05 09:55:55;;;;;;;10.47;9.43;;;10.10;65.40;;;;;;5092618;28;20704;-53
2021/03/05 09:58:22;;;;;;;10.90;8.47;;;10.10;64.10;;;;;;5092503;28;20630;-51
2021/03/05 10:00:49;;;;;;;9.57;8.57;;;10.10;63.30;;;;;;5092700;28;20681;-53
2021/03/05 10:03:16;;;;;;;13.00;8.63;;;10.10;63.30;;;;;;5092506;28;21089;-52
2021/03/05 10:05:44;;;;;;;11.27;8.80;;;10.00;63.00;;;;;;5092342;28;21037;-52
2021/03/05 10:08:15;;;;;;;11.57;9.43;;;9.90;64.40;;;;;;5092026;28;20648;-52
2021/03/05 10:10:59;;;;;;;10.67;8.20;;;10.00;63.60;;;;;;5092395;28;20628;-52
2021/03/05 10:13:48;;;;;;;9.03;7.87;;;9.90;64.60;;;;;;5092872;28;20716;-52
2021/03/05 10:16:20;;;;;;;10.00;8.90;;;9.90;64.70;;;;;;5091691;28;20684;-52
2021/03/05 10:18:49;;;;;;;18.63;9.40;;;9.90;63.70;;;;;;5091120;28;21153;-53
2021/03/05 10:21:16;;;;;;;9.87;7.10;;;10.00;62.40;;;;;;5091049;28;20632;-52
2021/03/05 10:23:43;;;;;;;9.20;8.30;;;10.10;61.40;;;;;;5087406;28;20722;-54
2021/03/05 10:26:13;;;;;;;8.30;6.80;;;10.10;60.60;;;;;;5091714;28;20631;-53
2021/03/05 10:28:40;;;;;;;10.30;7.13;;;10.20;60.10;;;;;;5092264;28;20647;-51
2021/03/05 10:31:07;;;;;;;10.33;7.77;;;10.20;59.20;;;;;;5091443;28;20620;-51
2021/03/05 10:33:38;;;;;;;7.67;6.47;;;10.20;59.30;;;;;;5091535;28;20717;-52
2021/03/05 10:36:06;;;;;;;9.33;7.93;;;10.20;58.90;;;;;;5091574;28;20632;-53
2021/03/05 10:38:33;;;;;;;8.33;7.27;;;10.30;57.90;;;;;;5091201;28;20784;-50
2021/03/05 10:41:00;;;;;;;8.70;7.30;;;10.20;57.30;;;;;;5090656;28;20624;-51
2021/03/05 10:43:27;;;;;;;9.80;7.10;;;10.20;57.60;;;;;;5090992;28;20717;-51
2021/03/05 10:45:53;;;;;;;9.30;8.40;;;10.20;57.40;;;;;;5091063;28;20987;-52
2021/03/05 10:48:21;;;;;;;6.20;5.60;;;10.20;57.40;;;;;;5090989;28;20693;-53
2021/03/05 10:50:48;;;;;;;7.77;7.00;;;10.20;57.40;;;;;;5091313;28;20757;-52
2021/03/05 10:53:15;;;;;;;11.77;9.70;;;10.20;57.10;;;;;;5091597;28;20748;-52
2021/03/05 10:55:42;;;;;;;10.67;8.80;;;10.20;57.60;;;;;;5091150;28;20694;-52
2021/03/05 10:58:09;;;;;;;8.07;7.27;;;10.20;57.90;;;;;;5090834;28;20620;-53
2021/03/05 11:00:36;;;;;;;8.03;7.20;;;10.20;57.70;;;;;;5090565;28;20634;-53
2021/03/05 11:03:02;;;;;;;9.13;8.10;;;10.30;57.30;;;;;;5091103;28;20722;-53
2021/03/05 11:05:29;;;;;;;9.97;8.97;;;10.40;57.20;;;;;;5091200;28;20716;-52
2021/03/05 11:07:57;;;;;;;8.80;7.87;;;10.60;57.20;;;;;;5091626;28;20627;-53
2021/03/05 11:10:24;;;;;;;9.73;8.50;;;10.80;56.70;;;;;;5091005;28;20697;-54
2021/03/05 11:12:50;;;;;;;12.27;8.80;;;11.00;55.80;;;;;;5091140;28;20683;-53
2021/03/05 11:15:18;;;;;;;7.50;6.80;;;11.00;54.90;;;;;;5091251;28;20636;-54
2021/03/05 11:17:45;;;;;;;12.70;6.77;;;11.00;54.80;;;;;;5090946;28;21006;-54
2021/03/05 11:20:12;;;;;;;8.13;6.73;;;11.10;54.80;;;;;;5091556;28;20690;-54
2021/03/05 11:22:39;;;;;;;8.90;8.00;;;11.10;54.50;;;;;;5081375;28;20686;-53
2021/03/05 11:25:08;;;;;;;10.33;8.43;;;11.10;54.40;;;;;;5091250;28;20620;-53
2021/03/05 11:27:35;;;;;;;9.20;7.83;;;11.00;54.00;;;;;;5092192;28;20629;-53
2021/03/05 11:30:13;;;;;;;9.77;8.77;;;11.00;53.60;;;;;;5086627;28;20658;-52
2021/03/05 11:32:40;;;;;;;11.67;9.30;;;10.90;53.50;;;;;;5088632;28;20689;-51
2021/03/05 11:35:08;;;;;;;7.93;6.63;;;10.90;53.90;;;;;;5091068;28;20685;-52
2021/03/05 11:37:35;;;;;;;10.17;7.87;;;11.10;54.40;;;;;;5090901;28;20616;-52
2021/03/05 11:40:01;;;;;;;8.43;7.50;;;11.30;54.00;;;;;;5090316;28;20628;-53
2021/03/05 11:42:29;;;;;;;9.10;8.20;;;11.50;53.40;;;;;;5090422;28;20781;-53
2021/03/05 11:45:00;;;;;;;8.97;8.00;;;11.50;52.60;;;;;;5091464;28;21013;-55
2021/03/05 11:47:30;;;;;;;8.13;7.47;;;11.70;52.20;;;;;;5091363;28;20632;-52
2021/03/05 11:49:56;;;;;;;9.00;8.20;;;11.70;51.80;;;;;;5090500;28;20677;-53
2021/03/05 11:52:23;;;;;;;8.67;7.50;;;11.80;51.80;;;;;;5091189;28;20631;-53
2021/03/05 11:54:50;;;;;;;9.80;7.67;;;11.80;51.40;;;;;;5090940;28;20641;-53
2021/03/05 11:57:17;;;;;;;11.60;8.00;;;11.80;51.00;;;;;;5090492;28;20688;-54
2021/03/05 11:59:44;;;;;;;8.70;7.77;;;11.80;51.30;;;;;;5091016;28;20727;-52
2021/03/05 12:02:11;;;;;;;11.93;8.67;;;11.70;51.30;;;;;;5090317;28;20698;-51
2021/03/05 12:04:38;;;;;;;11.83;7.17;;;11.70;51.20;;;;;;5090343;28;21027;-52
2021/03/05 12:07:04;;;;;;;9.00;8.10;;;11.70;51.30;;;;;;5090321;28;20918;-52
2021/03/05 12:09:31;;;;;;;8.57;7.23;;;11.60;50.40;;;;;;5090557;28;20862;-51
2021/03/05 12:11:58;;;;;;;9.00;6.70;;;11.60;50.80;;;;;;5089261;28;20653;-53
2021/03/05 12:14:25;;;;;;;6.20;5.43;;;11.50;50.30;;;;;;5090569;28;21222;-52
2021/03/05 12:16:52;;;;;;;9.73;8.00;;;11.50;50.10;;;;;;5090277;28;20657;-51
2021/03/05 12:19:19;;;;;;;7.77;7.07;;;11.60;50.10;;;;;;5089980;28;20620;-51
2021/03/05 12:21:46;;;;;;;7.97;7.17;;;13.10;50.30;;;;;;5089472;28;20686;-52
2021/03/05 12:24:13;;;;;;;9.17;8.27;;;13.60;47.90;;;;;;5075244;28;20723;-53
2021/03/05 12:26:40;;;;;;;8.20;7.40;;;14.30;47.20;;;;;;5071325;28;20817;-52
2021/03/05 12:29:07;;;;;;;8.07;7.27;;;14.60;45.20;;;;;;5070151;28;20713;-53
2021/03/05 12:31:33;;;;;;;8.30;7.40;;;14.40;44.30;;;;;;5082018;28;20640;-52
2021/03/05 12:34:02;;;;;;;9.03;7.23;;;14.20;43.50;;;;;;5077248;28;21079;-52
2021/03/05 12:36:28;;;;;;;7.87;7.07;;;14.00;43.70;;;;;;5078316;28;20677;-51
2021/03/05 12:38:55;;;;;;;7.43;6.73;;;13.80;43.60;;;;;;5090149;28;20632;-52
2021/03/05 12:41:22;;;;;;;8.67;7.83;;;13.50;43.60;;;;;;5080908;28;20628;-51
2021/03/05 12:43:49;;;;;;;7.90;7.10;;;13.30;44.10;;;;;;5069546;28;20733;-52
2021/03/05 12:46:15;;;;;;;7.50;6.67;;;13.00;44.20;;;;;;5069506;28;20707;-52
2021/03/05 12:48:42;;;;;;;7.40;6.27;;;12.90;44.70;;;;;;5069455;28;20632;-52
2021/03/05 12:51:10;;;;;;;7.63;6.83;;;12.70;44.70;;;;;;5069353;28;20621;-52
2021/03/05 12:53:37;;;;;;;6.97;6.27;;;12.60;45.00;;;;;;5069168;28;20731;-52
2021/03/05 12:56:04;;;;;;;8.53;6.67;;;12.50;45.00;;;;;;5077990;28;20803;-52